createdAt,value
2022-12-01T00:01:03.069Z,5.70
2022-12-01T00:03:32.995Z,5.70
2022-12-01T00:06:09.423Z,5.70
2022-12-01T00:08:36.067Z,5.70
2022-12-01T00:11:08.235Z,5.70
2022-12-01T00:13:35.446Z,5.70
2022-12-01T00:16:16.549Z,5.70
2022-12-01T00:18:43.778Z,5.70
2022-12-01T00:21:18.480Z,5.70
2022-12-01T00:23:47.490Z,5.70
2022-12-01T00:26:15.185Z,5.60
2022-12-01T00:28:41.841Z,5.70
2022-12-01T00:31:09.560Z,5.60
2022-12-01T00:33:36.416Z,5.70
2022-12-01T00:36:04.041Z,5.70
2022-12-01T00:38:31.255Z,5.60
2022-12-01T00:40:57.975Z,5.70
2022-12-01T00:43:24.983Z,5.70
2022-12-01T00:45:52.115Z,5.70
2022-12-01T00:48:18.964Z,5.70
2022-12-01T00:50:45.821Z,5.70
2022-12-01T00:53:12.476Z,5.70
2022-12-01T00:55:40.169Z,5.70
2022-12-01T00:58:07.561Z,5.70
2022-12-01T01:00:34.490Z,5.70
2022-12-01T01:03:01.430Z,5.70
2022-12-01T01:05:28.084Z,5.70
2022-12-01T01:07:54.808Z,5.70
2022-12-01T01:10:22.678Z,5.70
2022-12-01T01:12:49.320Z,5.70
2022-12-01T01:15:15.937Z,5.70
2022-12-01T01:17:42.585Z,5.70
2022-12-01T01:20:09.914Z,5.70
2022-12-01T01:22:36.542Z,5.70
2022-12-01T01:25:03.256Z,5.70
2022-12-01T01:27:30.393Z,5.70
2022-12-01T01:29:56.980Z,5.60
2022-12-01T01:32:23.571Z,5.60
2022-12-01T01:34:50.167Z,5.70
2022-12-01T01:37:16.751Z,5.70
2022-12-01T01:39:43.354Z,5.70
2022-12-01T01:42:13.962Z,5.70
2022-12-01T01:44:51.305Z,5.70
2022-12-01T01:47:31.640Z,5.70
2022-12-01T01:50:05.877Z,5.60
2022-12-01T01:52:36.042Z,5.60
2022-12-01T01:55:02.984Z,5.60
2022-12-01T01:57:33.330Z,5.60
2022-12-01T02:00:10.328Z,5.60
2022-12-01T02:02:40.763Z,5.90
2022-12-01T02:05:11.072Z,5.60
2022-12-01T02:07:42.289Z,5.60
2022-12-01T02:10:12.931Z,5.70
2022-12-01T02:12:57.289Z,5.70
2022-12-01T02:15:48.860Z,5.70
2022-12-01T02:18:38.649Z,5.70
2022-12-01T02:21:40.533Z,5.70
2022-12-01T02:24:18.996Z,5.70
2022-12-01T02:27:06.801Z,5.70
2022-12-01T02:29:51.120Z,5.70
2022-12-01T02:32:36.159Z,5.60
2022-12-01T02:35:24.491Z,5.60
2022-12-01T02:37:59.631Z,5.70
2022-12-01T02:40:36.693Z,6.10
2022-12-01T02:43:07.754Z,5.60
2022-12-01T02:45:49.308Z,5.60
2022-12-01T02:48:31.588Z,5.60
2022-12-01T02:51:06.143Z,5.60
2022-12-01T02:53:32.739Z,5.60
2022-12-01T02:55:59.483Z,5.70
2022-12-01T02:58:26.071Z,5.60
2022-12-01T03:01:18.127Z,5.70
2022-12-01T03:04:19.224Z,5.70
2022-12-01T03:07:01.220Z,5.60
2022-12-01T03:09:49.878Z,5.60
2022-12-01T03:12:45.433Z,5.70
2022-12-01T03:15:40.425Z,5.70
2022-12-01T03:18:27.727Z,5.60
2022-12-01T03:21:04.357Z,5.60
2022-12-01T03:23:36.361Z,5.70
2022-12-01T03:26:07.004Z,5.70
2022-12-01T03:28:38.432Z,5.60
2022-12-01T03:31:08.809Z,5.60
2022-12-01T03:33:43.289Z,5.60
2022-12-01T03:36:19.586Z,5.60
2022-12-01T03:38:52.693Z,5.70
2022-12-01T03:41:28.040Z,5.60
2022-12-01T03:44:08.905Z,5.60
2022-12-01T03:46:48.165Z,5.60
2022-12-01T03:49:17.686Z,5.60
2022-12-01T03:51:55.403Z,5.60
2022-12-01T03:54:45.256Z,5.90
2022-12-01T03:57:17.179Z,5.60
2022-12-01T03:59:45.649Z,5.60
2022-12-01T04:02:12.798Z,5.50
2022-12-01T04:04:39.515Z,5.60
2022-12-01T04:07:06.665Z,5.60
2022-12-01T04:09:33.253Z,5.60
2022-12-01T04:12:18.713Z,5.60
2022-12-01T04:14:45.367Z,5.50
2022-12-01T04:17:11.948Z,5.60
2022-12-01T04:19:38.516Z,5.60
2022-12-01T04:22:05.111Z,5.60
2022-12-01T04:24:31.793Z,5.50
2022-12-01T04:26:58.420Z,5.50
2022-12-01T04:29:25.090Z,5.60
2022-12-01T04:31:51.747Z,5.50
2022-12-01T04:34:18.427Z,5.50
2022-12-01T04:36:45.099Z,5.50
2022-12-01T04:39:11.706Z,5.50
2022-12-01T04:41:38.296Z,5.50
2022-12-01T04:44:05.172Z,5.50
2022-12-01T04:46:31.940Z,5.50
2022-12-01T04:48:58.687Z,5.50
2022-12-01T04:51:25.331Z,5.50
2022-12-01T04:53:51.945Z,5.50
2022-12-01T04:56:21.125Z,5.50
2022-12-01T04:58:47.925Z,5.50
2022-12-01T05:01:16.770Z,5.50
2022-12-01T05:03:49.100Z,5.50
2022-12-01T05:06:20.075Z,5.50
2022-12-01T05:08:47.254Z,5.50
2022-12-01T05:11:14.511Z,5.50
2022-12-01T05:13:44.801Z,5.50
2022-12-01T05:16:23.445Z,5.50
2022-12-01T05:19:14.105Z,5.50
2022-12-01T05:21:41.810Z,5.50
2022-12-01T05:24:09.486Z,5.50
2022-12-01T05:26:36.528Z,5.50
2022-12-01T05:29:03.872Z,5.50
2022-12-01T05:31:31.061Z,5.50
2022-12-01T05:33:57.764Z,5.50
2022-12-01T05:36:24.565Z,5.50
2022-12-01T05:38:51.396Z,5.50
2022-12-01T05:41:18.070Z,5.50
2022-12-01T05:43:44.705Z,5.50
2022-12-01T05:46:12.387Z,5.50
2022-12-01T05:48:39.296Z,5.50
2022-12-01T05:51:13.636Z,5.50
2022-12-01T05:53:41.116Z,5.50
2022-12-01T05:56:08.188Z,5.40
2022-12-01T05:58:35.725Z,5.40
2022-12-01T06:01:03.185Z,5.50
2022-12-01T06:03:29.826Z,5.40
2022-12-01T06:05:56.548Z,5.40
2022-12-01T06:08:23.117Z,5.40
2022-12-01T06:10:49.735Z,5.40
2022-12-01T06:13:16.381Z,5.40
2022-12-01T06:15:43.015Z,5.40
2022-12-01T06:18:09.637Z,5.40
2022-12-01T06:20:36.367Z,5.40
2022-12-01T06:23:03.451Z,5.40
2022-12-01T06:25:30.055Z,5.40
2022-12-01T06:27:59.781Z,5.40
2022-12-01T06:30:26.898Z,5.40
2022-12-01T06:32:53.592Z,5.40
2022-12-01T06:35:20.464Z,5.40
2022-12-01T06:37:47.295Z,5.40
2022-12-01T06:40:14.094Z,5.40
2022-12-01T06:42:40.761Z,5.40
2022-12-01T06:45:07.812Z,5.40
2022-12-01T06:47:34.842Z,5.40
2022-12-01T06:50:01.607Z,5.40
2022-12-01T06:52:28.408Z,5.40
2022-12-01T06:54:55.070Z,5.40
2022-12-01T06:57:21.944Z,5.40
2022-12-01T06:59:49.447Z,5.40
2022-12-01T07:02:17.063Z,5.40
2022-12-01T07:04:43.731Z,5.40
2022-12-01T07:07:11.979Z,5.40
2022-12-01T07:09:38.925Z,5.40
2022-12-01T07:12:05.929Z,5.50
2022-12-01T07:14:32.676Z,5.40
2022-12-01T07:16:59.322Z,5.40
2022-12-01T07:19:26.039Z,5.40
2022-12-01T07:21:52.885Z,5.40
2022-12-01T07:24:19.520Z,5.40
2022-12-01T07:26:46.309Z,5.40
2022-12-01T07:29:13.081Z,5.40
2022-12-01T07:31:39.862Z,5.50
2022-12-01T07:34:06.544Z,5.50
2022-12-01T07:36:33.188Z,5.50
2022-12-01T07:39:00.225Z,5.50
2022-12-01T07:41:26.843Z,5.50
2022-12-01T07:43:55.848Z,5.50
2022-12-01T07:46:25.675Z,5.50
2022-12-01T07:48:53.734Z,5.50
2022-12-01T07:51:21.300Z,5.50
2022-12-01T07:53:50.118Z,5.50
2022-12-01T07:56:18.513Z,5.50
2022-12-01T07:58:45.449Z,5.50
2022-12-01T08:01:14.851Z,5.60
2022-12-01T08:03:42.348Z,5.60
2022-12-01T08:06:09.665Z,5.50
2022-12-01T08:08:38.144Z,5.60
2022-12-01T08:11:09.570Z,5.60
2022-12-01T08:13:36.362Z,5.60
2022-12-01T08:16:05.328Z,5.60
2022-12-01T08:18:37.911Z,5.70
2022-12-01T08:21:05.706Z,5.60
2022-12-01T08:23:32.506Z,5.60
2022-12-01T08:26:03.891Z,5.60
2022-12-01T08:28:30.776Z,5.70
2022-12-01T08:30:57.538Z,5.70
2022-12-01T08:33:24.289Z,5.70
2022-12-01T08:35:50.941Z,5.70
2022-12-01T08:38:17.656Z,5.70
2022-12-01T08:40:44.289Z,5.70
2022-12-01T08:43:23.120Z,5.70
2022-12-01T08:45:59.341Z,5.70
2022-12-01T08:48:26.177Z,5.90
2022-12-01T08:50:52.860Z,5.80
2022-12-01T08:53:19.494Z,5.80
2022-12-01T08:55:46.209Z,5.80
2022-12-01T08:58:12.858Z,5.80
2022-12-01T09:00:39.497Z,5.80
2022-12-01T09:03:06.194Z,5.80
2022-12-01T09:05:32.897Z,5.90
2022-12-01T09:08:18.341Z,5.90
2022-12-01T09:10:52.143Z,5.90
2022-12-01T09:13:18.736Z,5.90
2022-12-01T09:15:54.009Z,6.00
2022-12-01T09:18:21.012Z,6.00
2022-12-01T09:20:47.699Z,6.00
2022-12-01T09:23:14.336Z,6.00
2022-12-01T09:25:41.016Z,6.00
2022-12-01T09:28:07.817Z,6.00
2022-12-01T09:30:37.808Z,6.10
2022-12-01T09:33:04.645Z,6.10
2022-12-01T09:35:31.888Z,6.10
2022-12-01T09:37:59.036Z,6.10
2022-12-01T09:40:31.283Z,6.10
2022-12-01T09:43:00.752Z,6.10
2022-12-01T09:45:31.628Z,6.10
2022-12-01T09:48:01.240Z,6.20
2022-12-01T09:50:30.021Z,6.20
2022-12-01T09:53:08.233Z,6.20
2022-12-01T09:55:35.867Z,6.20
2022-12-01T09:58:04.519Z,6.20
2022-12-01T10:00:34.675Z,6.20
2022-12-01T10:03:33.296Z,6.20
2022-12-01T10:09:18.086Z,6.20
2022-12-01T10:11:47.036Z,6.20
2022-12-01T10:14:20.105Z,6.20
2022-12-01T10:17:03.875Z,6.20
2022-12-01T10:19:58.399Z,6.30
2022-12-01T10:22:45.609Z,6.30
2022-12-01T10:25:23.172Z,6.30
2022-12-01T10:28:22.169Z,6.40
2022-12-01T10:30:50.560Z,6.40
2022-12-01T10:33:22.998Z,6.40
2022-12-01T10:35:50.639Z,6.40
2022-12-01T10:38:32.205Z,6.40
2022-12-01T10:41:01.128Z,6.40
2022-12-01T10:43:44.761Z,6.50
2022-12-01T10:46:29.145Z,6.50
2022-12-01T10:49:06.649Z,6.50
2022-12-01T10:51:57.944Z,6.40
2022-12-01T10:54:37.978Z,6.50
2022-12-01T10:57:06.640Z,6.50
2022-12-01T10:59:44.200Z,6.50
2022-12-01T11:02:21.146Z,6.50
2022-12-01T11:04:55.481Z,6.50
2022-12-01T11:07:29.699Z,6.50
2022-12-01T11:10:05.605Z,6.50
2022-12-01T11:12:33.842Z,6.60
2022-12-01T11:15:01.555Z,6.50
2022-12-01T11:17:42.366Z,6.50
2022-12-01T11:20:36.615Z,6.50
2022-12-01T11:23:18.628Z,6.50
2022-12-01T11:26:06.294Z,6.60
2022-12-01T11:28:34.746Z,6.60
2022-12-01T11:31:05.309Z,6.60
2022-12-01T11:33:44.001Z,6.60
2022-12-01T11:36:16.062Z,6.60
2022-12-01T11:38:42.992Z,6.70
2022-12-01T11:41:35.651Z,6.70
2022-12-01T11:44:12.794Z,6.70
2022-12-01T11:46:55.811Z,6.80
2022-12-01T11:49:46.736Z,6.80
2022-12-01T11:52:27.148Z,6.90
2022-12-01T11:55:08.470Z,6.90
2022-12-01T11:57:40.881Z,6.90
2022-12-01T12:00:19.609Z,6.90
2022-12-01T12:02:59.118Z,6.90
2022-12-01T12:05:46.604Z,6.90
2022-12-01T12:08:29.420Z,6.90
2022-12-01T12:11:14.983Z,6.80
2022-12-01T12:14:24.087Z,6.80
2022-12-01T12:17:06.483Z,6.80
2022-12-01T12:20:07.256Z,6.80
2022-12-01T12:23:07.649Z,6.80
2022-12-01T12:26:04.472Z,6.70
2022-12-01T12:29:13.598Z,6.70
2022-12-01T12:32:11.560Z,6.70
2022-12-01T12:34:41.198Z,6.70
2022-12-01T12:37:15.367Z,6.70
2022-12-01T12:40:15.728Z,6.70
2022-12-01T12:43:19.328Z,6.70
2022-12-01T12:45:57.951Z,6.70
2022-12-01T12:51:42.846Z,6.70
2022-12-01T12:54:16.905Z,6.80
2022-12-01T12:56:48.152Z,6.80
2022-12-01T12:59:34.196Z,6.70
2022-12-01T13:02:13.686Z,6.70
2022-12-01T13:04:40.322Z,6.60
2022-12-01T13:07:15.953Z,6.60
2022-12-01T13:09:44.391Z,6.70
2022-12-01T13:12:29.252Z,6.70
2022-12-01T13:15:29.395Z,6.70
2022-12-01T13:18:04.590Z,6.70
2022-12-01T13:20:34.424Z,6.70
2022-12-01T13:23:01.688Z,6.70
2022-12-01T13:25:38.142Z,6.70
2022-12-01T13:28:13.185Z,6.70
2022-12-01T13:30:39.885Z,6.70
2022-12-01T13:33:07.249Z,6.70
2022-12-01T13:35:38.864Z,6.60
2022-12-01T13:38:26.066Z,6.70
2022-12-01T13:41:26.249Z,6.60
2022-12-01T13:44:04.109Z,6.60
2022-12-01T13:46:52.994Z,6.60
2022-12-01T13:49:39.526Z,6.60
2022-12-01T13:52:48.100Z,6.60
2022-12-01T13:55:15.336Z,6.50
2022-12-01T13:57:48.453Z,6.50
2022-12-01T14:00:25.552Z,6.40
2022-12-01T14:03:17.159Z,6.50
2022-12-01T14:06:19.397Z,6.40
2022-12-01T14:08:48.927Z,6.40
2022-12-01T14:11:25.059Z,6.30
2022-12-01T14:14:10.396Z,6.40
2022-12-01T14:16:49.469Z,6.40
2022-12-01T14:19:53.135Z,6.40
2022-12-01T14:22:35.055Z,6.30
2022-12-01T14:25:02.705Z,6.30
2022-12-01T14:27:41.308Z,6.30
2022-12-01T14:30:56.275Z,6.30
2022-12-01T14:33:58.627Z,6.30
2022-12-01T14:36:37.876Z,6.30
2022-12-01T14:39:13.104Z,6.20
2022-12-01T14:41:48.785Z,6.20
2022-12-01T14:44:27.543Z,6.20
2022-12-01T14:46:54.280Z,6.20
2022-12-01T14:49:28.071Z,6.10
2022-12-01T14:52:03.878Z,6.20
2022-12-01T14:54:39.014Z,6.20
2022-12-01T14:57:11.106Z,6.10
2022-12-01T14:59:40.316Z,6.10
2022-12-01T15:02:09.668Z,6.10
2022-12-01T15:05:10.971Z,6.10
2022-12-01T15:07:44.113Z,6.10
2022-12-01T15:10:17.868Z,6.10
2022-12-01T15:12:45.062Z,6.10
2022-12-01T15:15:24.378Z,6.10
2022-12-01T15:17:52.959Z,6.10
2022-12-01T15:20:43.583Z,6.10
2022-12-01T15:23:15.618Z,6.10
2022-12-01T15:25:44.091Z,6.00
2022-12-01T15:28:16.463Z,6.00
2022-12-01T15:30:46.719Z,6.00
2022-12-01T15:33:23.985Z,6.00
2022-12-01T15:35:54.335Z,6.00
2022-12-01T15:38:36.189Z,5.90
2022-12-01T15:43:56.649Z,5.90
2022-12-01T15:46:31.790Z,5.80
2022-12-01T15:49:17.188Z,5.20
2022-12-01T15:51:44.484Z,5.80
2022-12-01T15:54:28.235Z,5.80
2022-12-01T15:56:56.642Z,5.70
2022-12-01T15:59:45.534Z,5.70
2022-12-01T16:02:31.840Z,5.80
2022-12-01T16:05:22.923Z,5.80
2022-12-01T16:08:12.687Z,5.70
2022-12-01T16:10:37.380Z,5.60
2022-12-01T16:13:37.983Z,5.70
2022-12-01T16:16:49.734Z,5.70
2022-12-01T16:19:16.411Z,5.60
2022-12-01T16:21:45.363Z,5.60
2022-12-01T16:24:26.332Z,5.60
2022-12-01T16:26:59.844Z,5.60
2022-12-01T16:29:28.671Z,5.60
2022-12-01T16:32:19.439Z,5.60
2022-12-01T16:34:46.511Z,5.60
2022-12-01T16:37:14.643Z,5.60
2022-12-01T16:39:41.364Z,5.60
2022-12-01T16:42:12.119Z,5.50
2022-12-01T16:44:38.798Z,5.50
2022-12-01T16:47:18.696Z,5.50
2022-12-01T16:49:45.356Z,5.60
2022-12-01T16:54:58.889Z,5.50
2022-12-01T16:57:25.462Z,5.60
2022-12-01T16:59:52.092Z,5.50
2022-12-01T17:02:18.727Z,5.50
2022-12-01T17:04:45.384Z,5.50
2022-12-01T17:07:11.975Z,5.50
2022-12-01T17:09:38.557Z,5.50
2022-12-01T17:12:05.764Z,5.50
2022-12-01T17:14:32.399Z,5.50
2022-12-01T17:16:59.013Z,5.40
2022-12-01T17:19:25.606Z,5.40
2022-12-01T17:21:53.005Z,5.30
2022-12-01T17:24:19.673Z,5.40
2022-12-01T17:26:46.316Z,5.30
2022-12-01T17:29:12.900Z,5.20
2022-12-01T17:31:39.558Z,5.30
2022-12-01T17:34:06.272Z,5.30
2022-12-01T17:36:32.904Z,5.30
2022-12-01T17:38:59.602Z,5.20
2022-12-01T17:41:32.148Z,5.20
2022-12-01T17:44:01.411Z,5.20
2022-12-01T17:46:28.246Z,5.20
2022-12-01T17:48:54.927Z,5.20
2022-12-01T17:51:21.812Z,5.20
2022-12-01T17:53:48.594Z,5.20
2022-12-01T17:56:16.662Z,5.10
2022-12-01T17:58:43.473Z,5.10
2022-12-01T18:01:17.767Z,5.10
2022-12-01T18:03:45.093Z,5.10
2022-12-01T18:06:11.769Z,5.10
2022-12-01T18:08:39.634Z,5.10
2022-12-01T18:11:09.916Z,5.10
2022-12-01T18:13:47.724Z,5.10
2022-12-01T18:16:18.420Z,5.10
2022-12-01T18:18:45.964Z,5.10
2022-12-01T18:21:16.655Z,5.10
2022-12-01T18:23:49.723Z,5.10
2022-12-01T18:26:16.892Z,5.10
2022-12-01T18:28:43.991Z,5.10
2022-12-01T18:31:15.830Z,5.10
2022-12-01T18:33:44.071Z,5.10
2022-12-01T18:36:16.957Z,5.10
2022-12-01T18:38:44.288Z,5.10
2022-12-01T18:41:10.883Z,5.10
2022-12-01T18:43:37.696Z,5.10
2022-12-01T18:46:06.341Z,5.10
2022-12-01T18:48:34.175Z,5.00
2022-12-01T18:51:07.865Z,5.10
2022-12-01T18:53:34.818Z,5.10
2022-12-01T18:56:03.409Z,5.10
2022-12-01T18:58:30.625Z,5.10
2022-12-01T19:00:57.690Z,5.10
2022-12-01T19:03:24.690Z,5.10
2022-12-01T19:05:51.438Z,5.10
2022-12-01T19:08:18.062Z,5.10
2022-12-01T19:10:44.765Z,5.10
2022-12-01T19:13:11.447Z,5.10
2022-12-01T19:15:38.085Z,5.10
2022-12-01T19:18:04.737Z,5.10
2022-12-01T19:20:31.326Z,5.10
2022-12-01T19:22:58.078Z,5.10
2022-12-01T19:25:24.710Z,5.10
2022-12-01T19:27:53.157Z,5.00
2022-12-01T19:30:19.985Z,5.00
2022-12-01T19:32:46.755Z,5.00
2022-12-01T19:35:13.436Z,5.00
2022-12-01T19:37:40.020Z,5.00
2022-12-01T19:40:07.400Z,5.00
2022-12-01T19:42:33.981Z,5.00
2022-12-01T19:45:01.140Z,5.00
2022-12-01T19:47:32.139Z,5.00
2022-12-01T19:49:58.740Z,5.10
2022-12-01T19:52:25.395Z,5.10
2022-12-01T19:54:52.960Z,5.00
2022-12-01T19:57:19.917Z,5.10
2022-12-01T19:59:46.778Z,5.00
2022-12-01T20:02:13.770Z,5.00
2022-12-01T20:04:40.645Z,5.00
2022-12-01T20:07:07.432Z,5.00
2022-12-01T20:09:34.084Z,5.00
2022-12-01T20:12:00.658Z,5.00
2022-12-01T20:14:27.385Z,5.00
2022-12-01T20:16:57.271Z,5.00
2022-12-01T20:19:23.935Z,5.00
2022-12-01T20:21:50.563Z,4.90
2022-12-01T20:24:20.120Z,5.00
2022-12-01T20:26:49.846Z,4.90
2022-12-01T20:29:23.148Z,4.90
2022-12-01T20:31:50.966Z,4.90
2022-12-01T20:34:25.481Z,4.90
2022-12-01T20:36:53.067Z,4.90
2022-12-01T20:39:19.833Z,4.90
2022-12-01T20:41:46.698Z,4.90
2022-12-01T20:44:15.299Z,4.90
2022-12-01T20:46:45.034Z,4.90
2022-12-01T20:49:13.085Z,4.90
2022-12-01T20:51:39.825Z,4.90
2022-12-01T20:56:55.456Z,4.90
2022-12-01T20:59:22.280Z,4.90
2022-12-01T21:01:49.076Z,4.90
2022-12-01T21:04:15.816Z,4.90
2022-12-01T21:06:42.566Z,4.80
2022-12-01T21:09:09.528Z,4.80
2022-12-01T21:12:15.259Z,4.80
2022-12-01T21:14:47.368Z,4.80
2022-12-01T21:17:30.329Z,4.80
2022-12-01T21:20:21.325Z,4.80
2022-12-01T21:22:49.955Z,4.80
2022-12-01T21:25:20.280Z,4.80
2022-12-01T21:27:47.752Z,4.80
2022-12-01T21:30:17.620Z,4.70
2022-12-01T21:32:45.578Z,4.70
2022-12-01T21:35:17.256Z,4.70
2022-12-01T21:37:44.488Z,4.70
2022-12-01T21:40:17.524Z,4.70
2022-12-01T21:42:44.579Z,4.70
2022-12-01T21:45:24.640Z,4.60
2022-12-01T21:47:51.340Z,4.60
2022-12-01T21:50:23.148Z,4.60
2022-12-01T21:52:50.696Z,4.60
2022-12-01T21:55:17.280Z,4.60
2022-12-01T21:57:49.229Z,4.50
2022-12-01T22:00:31.935Z,4.50
2022-12-01T22:02:58.649Z,4.50
2022-12-01T22:05:38.774Z,4.50
2022-12-01T22:08:13.348Z,4.40
2022-12-01T22:11:03.780Z,4.30
2022-12-01T22:13:59.644Z,4.40
2022-12-01T22:16:33.193Z,4.30
2022-12-01T22:19:08.302Z,4.30
2022-12-01T22:21:39.637Z,4.40
2022-12-01T22:24:09.009Z,4.40
2022-12-01T22:26:39.424Z,4.40
2022-12-01T22:29:30.583Z,4.40
2022-12-01T22:32:12.433Z,4.40
2022-12-01T22:34:40.335Z,4.30
2022-12-01T22:37:19.248Z,4.30
2022-12-01T22:39:47.657Z,4.30
2022-12-01T22:42:30.205Z,4.30
2022-12-01T22:45:22.102Z,4.30
2022-12-01T22:47:48.727Z,4.20
2022-12-01T22:50:32.083Z,4.30
2022-12-01T22:53:11.964Z,4.20
2022-12-01T22:55:39.947Z,4.20
2022-12-01T22:58:23.904Z,4.20
2022-12-01T23:00:52.045Z,4.20
2022-12-01T23:03:18.745Z,4.20
2022-12-01T23:05:45.671Z,4.20
2022-12-01T23:08:19.819Z,4.20
2022-12-01T23:10:46.442Z,4.20
2022-12-01T23:13:14.252Z,4.20
2022-12-01T23:15:47.968Z,4.20
2022-12-01T23:18:28.871Z,4.10
2022-12-01T23:20:57.574Z,4.10
2022-12-01T23:23:28.329Z,4.10
2022-12-01T23:25:55.524Z,4.00
2022-12-01T23:28:22.541Z,4.00
2022-12-01T23:30:52.766Z,3.90
2022-12-01T23:33:20.909Z,3.90
2022-12-01T23:36:21.372Z,3.90
2022-12-01T23:38:51.311Z,3.90
2022-12-01T23:41:33.607Z,4.00
2022-12-01T23:44:17.715Z,4.00
2022-12-01T23:46:44.759Z,4.00
2022-12-01T23:49:15.442Z,4.00
2022-12-01T23:51:47.939Z,4.00
2022-12-01T23:54:19.333Z,3.90
2022-12-01T23:56:54.121Z,3.90
2022-12-01T23:59:21.660Z,3.90
